Time;durP1;ratioP1;P1;durP2;ratioP2;P2;SDS_P1;SDS_P2;PMS_P1;PMS_P2;Temp;Humidity;BMP_temperature;BMP_pressure;BME280_temperature;BME280_humidity;BME280_pressure;Samples;Min_cycle;Max_cycle;Signal;HPM_P1;HPM_P2
2022/08/09 00:00:28;;;;;;;3.83;1.60;;;;;;;21.38;28.98;102135.53;5047046;28;20128;-68
2022/08/09 00:02:56;;;;;;;3.47;1.40;;;;;;;21.36;29.23;102143.19;5047731;28;20043;-68
2022/08/09 00:05:26;;;;;;;3.60;1.75;;;;;;;21.34;29.23;102142.50;5045977;28;20064;-68
2022/08/09 00:08:13;;;;;;;2.53;1.60;;;;;;;21.32;28.85;102143.72;5049630;28;20497;-69
2022/08/09 00:11:00;;;;;;;2.63;1.58;;;;;;;21.30;28.84;102143.88;5051275;28;20059;-68
2022/08/09 00:13:50;;;;;;;2.20;1.50;;;;;;;21.30;29.23;102143.88;5050791;28;20624;-68
2022/08/09 00:16:19;;;;;;;2.75;1.50;;;;;;;21.26;28.86;102141.63;5051107;28;20186;-68
2022/08/09 00:19:04;;;;;;;3.05;1.60;;;;;;;21.24;29.46;102138.13;5032716;28;20583;-68
2022/08/09 00:21:37;;;;;;;2.65;1.40;;;;;;;21.23;29.35;102130.78;5050856;28;20051;-68
2022/08/09 00:24:22;;;;;;;2.05;1.40;;;;;;;21.19;29.42;102133.03;5050492;28;20060;-68
2022/08/09 00:26:51;;;;;;;1.90;1.30;;;;;;;21.18;29.35;102127.69;5051607;28;20102;-68
2022/08/09 00:29:20;;;;;;;2.58;1.48;;;;;;;21.19;29.58;102123.84;5031213;28;20049;-69
2022/08/09 00:32:08;;;;;;;2.08;1.30;;;;;;;21.14;29.61;102133.59;5051790;28;20147;-68
2022/08/09 00:34:39;;;;;;;2.22;1.60;;;;;;;21.14;29.48;102128.00;5049912;28;20053;-68
2022/08/09 00:37:18;;;;;;;2.95;1.40;;;;;;;21.11;29.63;102131.13;5051449;28;20064;-69
2022/08/09 00:39:46;;;;;;;2.30;1.50;;;;;;;21.11;29.70;102141.41;5050260;28;20072;-68
2022/08/09 00:42:34;;;;;;;2.05;1.30;;;;;;;21.08;29.48;102137.06;5051017;28;20045;-69
2022/08/09 00:45:24;;;;;;;2.53;1.45;;;;;;;21.07;29.65;102135.31;5050012;28;20564;-68
2022/08/09 00:47:52;;;;;;;1.98;1.23;;;;;;;21.05;29.87;102140.19;5050459;28;20496;-68
2022/08/09 00:50:22;;;;;;;2.92;1.52;;;;;;;21.04;29.95;102138.44;5050253;28;20432;-68
2022/08/09 00:52:51;;;;;;;2.47;1.15;;;;;;;21.02;30.03;102139.69;5032809;28;20167;-68
2022/08/09 00:55:21;;;;;;;3.15;1.40;;;;;;;20.99;30.15;102135.31;5049738;28;20561;-69
2022/08/09 00:58:09;;;;;;;1.98;1.40;;;;;;;20.97;30.05;102148.53;5050837;28;20041;-68
2022/08/09 01:00:43;;;;;;;3.05;1.40;;;;;;;20.98;30.25;102144.69;5049568;28;20044;-68
2022/08/09 01:03:20;;;;;;;2.45;1.23;;;;;;;20.94;30.04;102142.44;5041326;23;20452;-65
2022/08/09 01:06:03;;;;;;;1.98;1.20;;;;;;;20.90;30.48;102138.25;5034234;28;20098;-65
2022/08/09 01:08:54;;;;;;;2.53;1.40;;;;;;;20.90;30.01;102133.56;5021204;28;20045;-65
2022/08/09 01:11:36;;;;;;;2.60;1.40;;;;;;;20.89;30.07;102134.59;5029101;28;20650;-66
2022/08/09 01:14:12;;;;;;;2.35;1.33;;;;;;;20.87;30.04;102141.38;5027603;28;20042;-65
2022/08/09 01:16:45;;;;;;;4.00;1.60;;;;;;;20.85;30.35;102146.25;5024637;28;20045;-66
2022/08/09 01:19:30;;;;;;;2.58;1.45;;;;;;;20.81;30.67;102140.16;5026555;28;20095;-67
2022/08/09 01:22:45;;;;;;;2.85;1.40;;;;;;;20.72;30.70;102135.59;5008536;28;20437;-65
2022/08/09 01:25:32;;;;;;;2.80;1.40;;;;;;;20.75;30.48;102144.50;4973509;28;20089;-65
2022/08/09 01:28:11;;;;;;;2.55;1.30;;;;;;;20.73;30.68;102145.69;5026085;28;20561;-64
2022/08/09 01:30:42;;;;;;;2.75;1.40;;;;;;;20.72;30.74;102138.38;5027098;28;20502;-66
2022/08/09 01:33:29;;;;;;;2.92;1.45;;;;;;;20.70;30.85;102129.34;5026526;28;20550;-65
2022/08/09 01:36:03;;;;;;;2.65;1.30;;;;;;;20.68;30.55;102135.09;5028009;28;20044;-65
2022/08/09 01:38:35;;;;;;;3.60;1.50;;;;;;;20.66;30.81;102131.59;5019553;28;20046;-65
2022/08/09 01:41:09;;;;;;;2.40;1.60;;;;;;;20.65;30.67;102135.41;5026910;28;20073;-66
2022/08/09 01:43:40;;;;;;;2.67;1.60;;;;;;;20.62;30.80;102138.53;5027332;28;20061;-65
2022/08/09 01:46:22;;;;;;;2.28;1.50;;;;;;;20.60;31.01;102142.53;5009561;28;20292;-65
2022/08/09 01:48:56;;;;;;;3.17;1.52;;;;;;;20.59;30.90;102138.88;5026039;28;20045;-65
2022/08/09 01:51:28;;;;;;;2.95;1.40;;;;;;;20.57;30.75;102138.16;5027959;28;20057;-65
2022/08/09 01:54:02;;;;;;;2.53;1.40;;;;;;;20.56;31.14;102138.31;5026736;28;20046;-66
2022/08/09 01:56:33;;;;;;;2.42;1.40;;;;;;;20.53;30.94;102139.50;5028322;28;20052;-65
2022/08/09 01:59:09;;;;;;;3.47;1.60;;;;;;;20.52;31.47;102135.00;5007685;28;20053;-66
2022/08/09 02:01:39;;;;;;;1.80;1.20;;;;;;;20.50;30.97;102137.09;5025245;28;20048;-65
2022/08/09 02:04:28;;;;;;;2.65;1.42;;;;;;;20.47;31.14;102139.31;5021888;28;20053;-66
2022/08/09 02:07:12;;;;;;;2.83;1.40;;;;;;;20.47;31.50;102142.97;5026087;28;20045;-65
2022/08/09 02:10:07;;;;;;;2.88;1.30;;;;;;;20.44;31.20;102143.34;5020717;28;20477;-65
2022/08/09 02:12:37;;;;;;;2.10;1.23;;;;;;;20.42;31.48;102145.41;5024852;28;20037;-66
2022/08/09 02:15:09;;;;;;;4.90;1.52;;;;;;;20.40;31.14;102142.78;5022354;28;20047;-66
2022/08/09 02:17:48;;;;;;;2.00;1.20;;;;;;;20.36;31.32;102149.72;5023310;28;20037;-65
2022/08/09 02:20:39;;;;;;;2.78;1.48;;;;;;;20.34;31.57;102150.94;5014182;28;20045;-65
2022/08/09 02:23:12;;;;;;;2.00;1.30;;;;;;;20.31;31.63;102142.91;5026608;28;20445;-65
2022/08/09 02:25:46;;;;;;;2.55;1.48;;;;;;;20.29;31.46;102144.97;5027101;28;20060;-65
2022/08/09 02:28:27;;;;;;;3.10;1.60;;;;;;;20.27;31.89;102141.53;5020471;28;20047;-66
2022/08/09 02:30:59;;;;;;;;;;;;;;;19.94;32.00;102137.72;5022690;28;20052;-66
2022/08/09 02:33:32;;;;;;;2.22;1.23;;;;;;;20.17;31.49;102138.88;5006940;28;20465;-65
2022/08/09 02:36:30;;;;;;;2.35;1.23;;;;;;;20.18;31.49;102139.75;5021547;28;20057;-66
2022/08/09 02:39:01;;;;;;;2.08;1.20;;;;;;;20.16;31.54;102134.34;5018799;28;20061;-66
2022/08/09 02:41:40;;;;;;;2.55;1.55;;;;;;;20.15;32.23;102140.94;5024379;28;20081;-66
2022/08/09 02:44:15;;;;;;;4.43;1.38;;;;;;;20.13;32.05;102137.44;5022965;28;20125;-65
2022/08/09 02:47:02;;;;;;;3.05;1.63;;;;;;;20.11;32.00;102133.09;5025911;28;20041;-65
2022/08/09 02:49:33;;;;;;;3.67;1.45;;;;;;;20.07;31.85;102132.56;5025285;28;20549;-65
2022/08/09 02:52:11;;;;;;;2.35;1.50;;;;;;;20.04;31.89;102130.09;5021276;28;20044;-66
2022/08/09 02:54:40;;;;;;;2.60;1.50;;;;;;;20.01;31.74;102130.44;5024541;28;20501;-65
2022/08/09 02:57:22;;;;;;;2.78;1.48;;;;;;;19.96;32.11;102130.06;5024522;28;20449;-66
2022/08/09 02:59:53;;;;;;;3.75;1.65;;;;;;;19.95;32.21;102134.75;5006041;28;20132;-66
2022/08/09 03:02:47;;;;;;;2.88;1.63;;;;;;;19.94;32.22;102132.16;5025182;28;20068;-66
2022/08/09 03:05:28;;;;;;;2.72;1.42;;;;;;;19.90;32.53;102133.47;5023666;28;20056;-65
2022/08/09 03:08:03;;;;;;;3.47;1.50;;;;;;;19.89;32.61;102128.94;5022723;28;20407;-65
2022/08/09 03:10:33;;;;;;;2.85;1.27;;;;;;;19.87;32.15;102134.66;5023034;28;20046;-66
2022/08/09 03:13:02;;;;;;;3.53;1.60;;;;;;;19.86;32.78;102126.50;5023555;28;20045;-66
2022/08/09 03:15:35;;;;;;;4.28;1.48;;;;;;;19.82;32.58;102128.75;5023303;28;20055;-65
2022/08/09 03:18:25;;;;;;;2.78;1.40;;;;;;;19.83;32.57;102129.63;5025606;28;20041;-66
2022/08/09 03:20:59;;;;;;;2.38;1.50;;;;;;;19.81;32.63;102132.53;5022269;28;20326;-65
2022/08/09 03:23:27;;;;;;;2.95;1.50;;;;;;;19.79;32.89;102131.84;5023962;28;20053;-65
2022/08/09 03:25:57;;;;;;;2.22;1.40;;;;;;;19.78;32.95;102132.91;5024278;28;20140;-66
2022/08/09 03:28:33;;;;;;;2.33;1.20;;;;;;;19.77;33.00;102121.94;5021754;28;20537;-66
2022/08/09 03:31:02;;;;;;;2.15;1.40;;;;;;;19.76;32.95;102136.88;5023027;28;20041;-65
2022/08/09 03:33:50;;;;;;;7.72;4.68;;;;;;;19.74;32.69;102131.47;5023704;28;20052;-65
2022/08/09 03:36:25;;;;;;;11.85;7.25;;;;;;;19.75;33.08;102137.91;5024141;28;20076;-65
2022/08/09 03:38:54;;;;;;;9.73;6.00;;;;;;;19.71;33.05;102136.50;5023486;28;20052;-65
2022/08/09 03:41:23;;;;;;;10.25;5.75;;;;;;;19.69;32.66;102133.00;5024144;28;20046;-66
2022/08/09 03:43:57;;;;;;;15.75;9.93;;;;;;;19.65;32.80;102130.53;5004846;28;20047;-66
2022/08/09 03:46:36;;;;;;;14.70;9.15;;;;;;;19.64;33.00;102128.78;5019490;28;20033;-66
2022/08/09 03:49:08;;;;;;;14.25;9.23;;;;;;;19.65;33.04;102136.09;5025064;28;20053;-65
2022/08/09 03:51:40;;;;;;;11.38;6.93;;;;;;;19.64;33.45;102136.25;5018208;28;20519;-65
2022/08/09 03:54:29;;;;;;;7.55;4.95;;;;;;;19.60;33.32;102141.28;5023702;28;20053;-66
2022/08/09 03:57:02;;;;;;;5.18;3.00;;;;;;;19.59;33.53;102145.09;5024491;28;20095;-65
2022/08/09 03:59:40;;;;;;;5.93;3.10;;;;;;;19.56;33.57;102142.63;5019384;28;20052;-65
2022/08/09 04:02:23;;;;;;;4.75;2.88;;;;;;;19.54;32.97;102141.06;5024130;28;20467;-66
2022/08/09 04:04:57;;;;;;;6.32;3.10;;;;;;;19.54;33.76;102146.63;5024592;28;20053;-66
2022/08/09 04:07:27;;;;;;;5.78;3.20;;;;;;;19.51;33.14;102139.47;5022169;28;20052;-65
2022/08/09 04:10:15;;;;;;;3.75;2.08;;;;;;;19.50;33.77;102136.84;5021348;28;20375;-66
2022/08/09 04:12:50;;;;;;;3.58;1.83;;;;;;;19.49;33.42;102140.66;5023307;28;20156;-65
2022/08/09 04:15:20;;;;;;;3.83;1.75;;;;;;;19.48;33.38;102153.66;5019972;28;20054;-65
2022/08/09 04:18:08;;;;;;;2.80;1.70;;;;;;;19.44;33.28;102155.03;5021142;28;20561;-65
2022/08/09 04:20:46;;;;;;;3.88;1.67;;;;;;;19.46;33.63;102157.66;5023381;28;20046;-65
2022/08/09 04:23:14;;;;;;;3.88;1.55;;;;;;;19.42;33.62;102154.31;5025349;28;20405;-65
2022/08/09 04:25:44;;;;;;;2.95;1.60;;;;;;;19.41;33.83;102160.91;5021203;28;20397;-65
2022/08/09 04:28:20;;;;;;;2.97;1.60;;;;;;;19.40;33.92;102158.28;5017049;28;20125;-65
2022/08/09 04:31:07;;;;;;;4.32;1.65;;;;;;;19.41;34.33;102165.59;5023471;28;20038;-65
2022/08/09 04:33:41;;;;;;;3.20;1.52;;;;;;;19.38;33.71;102163.16;5017803;28;20065;-66
2022/08/09 04:36:22;;;;;;;2.70;1.70;;;;;;;19.39;33.66;102167.63;5021058;28;20544;-66
2022/08/09 04:38:52;;;;;;;2.40;1.50;;;;;;;19.37;33.70;102172.50;5016290;28;20048;-65
2022/08/09 04:41:20;;;;;;;2.03;1.45;;;;;;;19.35;34.11;102169.00;5014912;28;20069;-65
2022/08/09 04:43:51;;;;;;;2.33;1.38;;;;;;;19.36;33.71;102167.97;5022494;28;20064;-66
2022/08/09 04:46:34;;;;;;;2.85;1.58;;;;;;;19.34;33.94;102173.69;5023084;28;20407;-65
2022/08/09 04:49:22;;;;;;;3.60;1.88;;;;;;;19.31;33.76;102170.34;5020035;28;20049;-65
2022/08/09 04:52:11;;;;;;;3.50;1.60;;;;;;;19.31;34.20;102165.66;5015161;28;20389;-65
2022/08/09 04:54:53;;;;;;;3.03;1.20;;;;;;;19.29;34.38;102176.09;5021586;28;20406;-65
2022/08/09 04:57:21;;;;;;;4.25;1.67;;;;;;;19.29;34.14;102170.53;5027587;28;20060;-65
2022/08/09 04:59:54;;;;;;;2.33;1.42;;;;;;;19.31;33.94;102167.56;5025189;28;20046;-66
2022/08/09 05:02:23;;;;;;;3.55;1.80;;;;;;;19.30;34.19;102175.03;5008514;28;20049;-65
2022/08/09 05:04:54;;;;;;;3.70;1.73;;;;;;;19.25;34.27;102172.75;5021606;28;20712;-65
2022/08/09 05:07:25;;;;;;;2.95;1.60;;;;;;;19.30;34.48;102176.94;5027351;28;20041;-65
2022/08/09 05:09:58;;;;;;;2.08;1.48;;;;;;;19.26;34.15;102179.16;5021989;28;20132;-66
2022/08/09 05:12:29;;;;;;;3.78;1.75;;;;;;;19.25;34.44;102174.66;5024634;28;20677;-66
2022/08/09 05:15:00;;;;;;;2.75;1.65;;;;;;;19.24;34.45;102179.31;5006512;28;20140;-65
2022/08/09 05:17:30;;;;;;;3.22;1.67;;;;;;;19.23;34.79;102185.91;5026543;28;20037;-65
2022/08/09 05:20:18;;;;;;;2.83;1.52;;;;;;;19.24;34.84;102189.56;5027701;28;20088;-65
2022/08/09 05:22:49;;;;;;;3.17;1.38;;;;;;;19.27;34.92;102194.78;5010841;28;20038;-66
2022/08/09 05:25:37;;;;;;;3.30;1.67;;;;;;;19.24;35.05;102197.88;5027453;28;20211;-66
2022/08/09 05:28:08;;;;;;;2.80;1.42;;;;;;;19.27;34.79;102192.03;5026073;28;20083;-66
2022/08/09 05:30:36;;;;;;;3.10;1.67;;;;;;;19.31;35.13;102195.34;5020182;28;20061;-65
2022/08/09 05:33:08;;;;;;;3.50;1.60;;;;;;;19.34;35.23;102195.03;5024322;28;20064;-65
2022/08/09 05:35:37;;;;;;;4.10;1.85;;;;;;;19.45;34.92;102204.00;5021124;28;20049;-66
2022/08/09 05:38:15;;;;;;;4.10;1.80;;;;;;;19.58;34.76;102200.78;5023802;28;20133;-68
2022/08/09 05:40:49;;;;;;;4.35;1.65;;;;;;;19.70;35.18;102202.28;5023929;28;20037;-67
2022/08/09 05:43:19;;;;;;;2.97;1.75;;;;;;;19.84;34.70;102198.91;5027077;28;20077;-68
2022/08/09 05:45:48;;;;;;;3.38;1.60;;;;;;;20.02;34.45;102204.44;5026724;28;20045;-67
2022/08/09 05:48:23;;;;;;;3.15;1.70;;;;;;;20.17;34.79;102208.34;5021901;28;20049;-67
2022/08/09 05:51:00;;;;;;;3.10;1.70;;;;;;;20.31;34.40;102204.06;5023787;28;20047;-66
2022/08/09 05:53:50;;;;;;;3.03;1.60;;;;;;;20.45;34.12;102200.66;5023043;28;20140;-67
2022/08/09 05:56:27;;;;;;;3.38;1.40;;;;;;;20.54;33.71;102205.22;5009425;28;20514;-69
2022/08/09 05:58:56;;;;;;;2.65;1.55;;;;;;;20.59;33.58;102204.78;5024747;28;20069;-67
2022/08/09 06:01:26;;;;;;;2.42;1.52;;;;;;;20.64;33.96;102206.00;5025748;28;20056;-66
2022/08/09 06:04:09;;;;;;;3.10;1.75;;;;;;;20.67;33.91;102215.94;5018603;28;20084;-68
2022/08/09 06:06:39;;;;;;;2.90;1.70;;;;;;;20.68;33.77;102210.19;5015849;28;21062;-68
2022/08/09 06:09:18;;;;;;;4.20;1.55;;;;;;;20.70;33.50;102210.00;5003949;28;20335;-68
2022/08/09 06:12:06;;;;;;;2.80;1.67;;;;;;;20.67;33.62;102214.03;5006396;28;20045;-67
2022/08/09 06:14:34;;;;;;;3.83;2.33;;;;;;;20.67;33.78;102215.94;5022148;28;20540;-68
2022/08/09 06:17:02;;;;;;;3.03;1.60;;;;;;;20.65;33.63;102215.22;5025188;28;20041;-67
2022/08/09 06:19:36;;;;;;;3.03;1.55;;;;;;;20.62;33.77;102209.97;5026424;28;20038;-67
2022/08/09 06:22:05;;;;;;;3.50;1.90;;;;;;;20.60;33.53;102218.53;5026469;28;20046;-68
2022/08/09 06:24:43;;;;;;;4.75;2.00;;;;;;;20.59;33.76;102216.78;5026594;28;20510;-68
2022/08/09 06:27:11;;;;;;;4.03;1.95;;;;;;;20.56;33.50;102213.41;5024194;28;20045;-67
2022/08/09 06:29:42;;;;;;;5.50;1.98;;;;;;;20.55;33.61;102217.22;5021984;28;20506;-67
2022/08/09 06:32:25;;;;;;;4.82;1.92;;;;;;;20.54;33.81;102209.91;5021140;28;20520;-67
2022/08/09 06:35:13;;;;;;;3.92;1.80;;;;;;;20.55;34.07;102220.00;5022484;28;20045;-68
2022/08/09 06:37:41;;;;;;;4.63;2.03;;;;;;;20.57;33.70;102220.72;5026129;28;20046;-67
2022/08/09 06:40:22;;;;;;;2.40;1.70;;;;;;;20.62;33.66;102215.53;5022147;28;20042;-67
2022/08/09 06:42:51;;;;;;;3.88;1.67;;;;;;;20.63;34.17;102217.28;5025877;28;20065;-67
2022/08/09 06:45:20;;;;;;;3.50;1.90;;;;;;;20.69;33.84;102208.28;5023637;28;20132;-68
2022/08/09 06:48:08;;;;;;;3.08;1.70;;;;;;;20.75;34.06;102213.19;5025927;28;20497;-68
2022/08/09 06:50:43;;;;;;;5.20;1.80;;;;;;;20.84;34.15;102220.50;5025102;28;20060;-67
2022/08/09 06:53:13;;;;;;;3.42;2.05;;;;;;;20.93;33.90;102216.72;5023271;28;20060;-67
2022/08/09 06:55:42;;;;;;;3.67;1.70;;;;;;;21.08;33.71;102223.34;5023063;28;20132;-68
2022/08/09 06:58:15;;;;;;;4.10;1.90;;;;;;;21.18;33.69;102223.22;5024450;28;20556;-68
2022/08/09 07:01:03;;;;;;;2.63;1.52;;;;;;;21.33;33.66;102226.22;5023581;28;20046;-67
2022/08/09 07:03:33;;;;;;;3.72;1.88;;;;;;;21.48;33.56;102218.91;5025906;28;20045;-68
2022/08/09 07:06:07;;;;;;;5.25;1.77;;;;;;;21.63;33.10;102221.88;5025931;28;20374;-68
2022/08/09 07:08:35;;;;;;;4.00;2.15;;;;;;;21.79;32.76;102224.66;5024643;28;20037;-68
2022/08/09 07:11:08;;;;;;;6.63;1.95;;;;;;;21.96;32.76;102225.53;5025509;28;20052;-68
2022/08/09 07:13:39;;;;;;;9.15;2.30;;;;;;;22.10;32.70;102222.00;5022081;28;20046;-68
2022/08/09 07:16:27;;;;;;;3.90;1.70;;;;;;;22.27;32.26;102229.28;5022157;28;20045;-68
2022/08/09 07:19:16;;;;;;;3.42;1.90;;;;;;;22.46;32.02;102225.22;5022947;28;20068;-68
2022/08/09 07:21:50;;;;;;;3.95;1.70;;;;;;;22.62;32.14;102228.84;5024610;28;20033;-68
2022/08/09 07:24:27;;;;;;;2.63;1.60;;;;;;;22.79;31.51;102231.56;5006832;28;20050;-68
2022/08/09 07:27:10;;;;;;;3.10;1.90;;;;;;;22.96;31.31;102230.44;5021991;28;20041;-68
2022/08/09 07:29:58;;;;;;;4.70;1.83;;;;;;;23.08;31.39;102234.56;5021932;28;20045;-68
2022/08/09 07:32:27;;;;;;;4.13;1.80;;;;;;;23.25;30.93;102233.41;5021998;28;20494;-69
2022/08/09 07:35:03;;;;;;;4.20;1.85;;;;;;;23.39;30.66;102218.66;5024847;28;20052;-69
2022/08/09 07:37:38;;;;;;;2.72;1.63;;;;;;;23.51;30.49;102224.66;5017060;28;20069;-69
2022/08/09 07:40:13;;;;;;;5.65;1.90;;;;;;;23.64;30.37;102224.94;5019057;28;20494;-68
2022/08/09 07:42:55;;;;;;;3.50;1.85;;;;;;;23.78;29.67;102228.84;5024576;28;20108;-68
2022/08/09 07:45:26;;;;;;;3.42;2.00;;;;;;;23.85;29.84;102229.81;5024845;28;20058;-68
2022/08/09 07:48:06;;;;;;;3.37;1.90;;;;;;;23.96;29.80;102223.78;5026918;28;20049;-68
2022/08/09 07:50:52;;;;;;;3.53;1.98;;;;;;;24.07;29.45;102225.25;5026330;28;20394;-67
2022/08/09 07:53:38;;;;;;;6.55;1.80;;;;;;;24.18;29.47;102219.16;5026122;28;20056;-67
2022/08/09 07:56:26;;;;;;;3.53;2.05;;;;;;;24.30;29.06;102217.66;5007555;28;20132;-67
2022/08/09 07:58:59;;;;;;;5.47;2.10;;;;;;;24.41;28.95;102217.19;5006875;28;20042;-68
2022/08/09 08:01:27;;;;;;;3.85;1.88;;;;;;;24.50;28.83;102218.81;5025949;28;20554;-68
2022/08/09 08:04:02;;;;;;;3.83;1.80;;;;;;;24.63;28.82;102222.88;5025649;28;20054;-67
2022/08/09 08:06:30;;;;;;;3.38;1.75;;;;;;;24.72;28.50;102216.13;5008116;28;20420;-67
2022/08/09 08:09:01;;;;;;;3.20;1.85;;;;;;;24.79;28.59;102226.34;5017160;28;20048;-68
2022/08/09 08:11:45;;;;;;;3.67;1.92;;;;;;;24.92;28.50;102231.22;5026011;28;20482;-68
2022/08/09 08:14:34;;;;;;;4.63;1.90;;;;;;;25.05;28.47;102239.84;5014793;28;20053;-68
2022/08/09 08:17:02;;;;;;;4.88;1.90;;;;;;;25.14;28.38;102233.00;5026184;28;20042;-68
2022/08/09 08:19:39;;;;;;;3.75;1.83;;;;;;;25.24;28.48;102236.38;5025829;28;20132;-67
2022/08/09 08:22:11;;;;;;;3.38;1.80;;;;;;;25.36;28.11;102239.53;5026210;28;20038;-68
2022/08/09 08:24:39;;;;;;;3.80;2.17;;;;;;;25.45;27.89;102243.06;5032195;28;20628;-67
2022/08/09 08:27:09;;;;;;;3.05;1.90;;;;;;;25.56;27.71;102242.56;5025898;28;20057;-68
2022/08/09 08:29:46;;;;;;;3.15;1.67;;;;;;;25.69;27.94;102239.03;5027111;28;20144;-67
2022/08/09 08:32:18;;;;;;;3.80;1.80;;;;;;;25.75;27.53;102239.06;5028965;28;20204;-68
2022/08/09 08:34:56;;;;;;;2.92;1.65;;;;;;;25.88;27.29;102236.41;5029497;28;20041;-67
2022/08/09 08:37:26;;;;;;;3.53;1.90;;;;;;;25.98;27.19;102239.72;5029512;28;20133;-68
2022/08/09 08:40:10;;;;;;;2.85;1.73;;;;;;;26.09;26.92;102235.50;5028630;28;20042;-68
2022/08/09 08:42:39;;;;;;;3.42;1.90;;;;;;;26.17;26.75;102235.38;5029423;28;20034;-68
2022/08/09 08:45:17;;;;;;;3.50;2.00;;;;;;;26.27;26.71;102232.19;5016059;28;20045;-68
2022/08/09 08:48:05;;;;;;;2.78;1.70;;;;;;;26.34;26.96;102238.72;5029200;28;20100;-68
2022/08/09 08:50:37;;;;;;;3.75;2.00;;;;;;;26.43;27.13;102243.09;5028448;28;20406;-67
2022/08/09 08:53:05;;;;;;;3.63;2.20;;;;;;;26.54;26.94;102250.09;5010442;28;20044;-68
2022/08/09 08:55:43;;;;;;;3.70;1.90;;;;;;;26.63;26.71;102246.91;5029547;28;20045;-67
2022/08/09 08:58:11;;;;;;;4.18;2.13;;;;;;;26.73;26.34;102247.41;5024357;28;20117;-67
2022/08/09 09:00:41;;;;;;;3.22;2.05;;;;;;;26.84;25.89;102245.94;5010469;28;20056;-67
2022/08/09 09:03:16;;;;;;;3.25;2.05;;;;;;;26.92;25.46;102250.50;5028355;28;20045;-67
2022/08/09 09:06:06;;;;;;;3.15;1.83;;;;;;;26.93;25.81;102250.31;5027488;28;20549;-67
2022/08/09 09:08:37;;;;;;;;;;;;;;;26.72;26.45;102247.59;5028043;28;20049;-67
2022/08/09 09:11:09;;;;;;;;;;;;;;;26.73;26.67;102253.00;5016156;28;19924;-67
2022/08/09 09:13:46;;;;;;;;;;;;;;;26.80;26.78;102257.78;5029447;28;20301;-67
2022/08/09 09:16:27;;;;;;;;;;;;;;;26.89;26.87;102251.78;5030535;28;20050;-67
2022/08/09 09:18:58;;;;;;;;;;;;;;;26.98;26.41;102253.34;5029801;28;19921;-67
2022/08/09 09:21:56;;;;;;;;;;;;;;;27.10;26.91;102253.63;5008910;28;19921;-67
2022/08/09 09:24:27;;;;;;;;;;;;;;;27.21;26.73;102253.00;5004106;28;19955;-67
2022/08/09 09:26:56;;;;;;;;;;;;;;;27.29;26.49;102252.81;5028184;28;19928;-67
2022/08/09 09:29:27;;;;;;;;;;;;;;;27.36;26.11;102255.69;5027609;28;19921;-67
2022/08/09 09:32:20;;;;;;;;;;;;;;;27.42;26.22;102252.00;5025273;28;19929;-68
2022/08/09 09:35:03;;;;;;;;;;;;;;;27.48;25.92;102259.59;5026323;28;20389;-67
2022/08/09 09:37:36;;;;;;;;;;;;;;;27.53;25.92;102256.16;5028464;28;19924;-67
2022/08/09 09:40:07;;;;;;;;;;;;;;;27.56;25.82;102255.69;5025335;28;20302;-68
2022/08/09 09:42:36;;;;;;;;;;;;;;;27.58;25.63;102251.59;5027049;28;19921;-67
2022/08/09 09:45:07;;;;;;;;;;;;;;;27.60;25.53;102242.97;5017270;28;20008;-68
2022/08/09 09:47:36;;;;;;;;;;;;;;;27.62;25.72;102232.34;5019781;28;19940;-69
2022/08/09 09:50:20;;;;;;;;;;;;;;;27.64;25.58;102235.81;5020865;28;19943;-68
2022/08/09 09:52:50;;;;;;;;;;;;;;;27.65;25.51;102252.47;5009488;28;20274;-68
2022/08/09 09:55:21;;;;;;;;;;;;;;;27.67;25.45;102253.13;5024552;28;19921;-68
2022/08/09 09:58:00;;;;;;;;;;;;;;;27.68;25.34;102249.25;5026120;28;19925;-68
2022/08/09 10:00:47;;;;;;;;;;;;;;;27.70;25.45;102252.72;5005419;28;19921;-68
2022/08/09 10:03:42;;;;;;;;;;;;;;;27.71;25.35;102250.78;5023764;28;20396;-68
2022/08/09 10:06:11;;;;;;;;;;;;;;;27.72;25.12;102250.56;5025081;28;19968;-69
2022/08/09 10:08:40;;;;;;;;;;;;;;;27.75;25.16;102246.47;5004501;28;19988;-68
2022/08/09 10:11:23;;;;;;;;;;;;;;;27.76;25.20;102248.19;5019756;28;19996;-69
2022/08/09 10:14:21;;;;;;;;;;;;;;;27.81;25.04;102262.47;5023450;28;19971;-66
2022/08/09 10:16:54;;;;;;;;;;;;;;;27.84;25.14;102254.47;5016903;28;19936;-68
2022/08/09 10:19:43;;;;;;;;;;;;;;;27.87;24.94;102250.34;5021473;28;19929;-68
2022/08/09 10:22:12;;;;;;;;;;;;;;;27.91;24.60;102245.16;5025973;28;19924;-69
2022/08/09 10:24:52;;;;;;;;;;;;;;;27.93;24.63;102240.19;5025473;28;20004;-68
2022/08/09 10:27:20;;;;;;;;;;;;;;;27.95;24.67;102244.50;5027188;28;20023;-66
2022/08/09 10:29:56;;;;;;;;;;;;;;;28.00;24.77;102244.75;5024278;28;20440;-67
2022/08/09 10:32:44;;;;;;;;;;;;;;;28.03;24.47;102243.41;5027147;28;19925;-68
2022/08/09 10:35:14;;;;;;;;;;;;;;;28.06;24.70;102240.19;5026246;28;19929;-68
2022/08/09 10:37:43;;;;;;;;;;;;;;;28.10;24.60;102238.69;5020275;28;20016;-68
2022/08/09 10:40:13;;;;;;;;;;;;;;;28.16;24.64;102240.59;5023611;28;20445;-68
2022/08/09 10:43:00;;;;;;;;;;;;;;;28.19;24.13;102235.38;5026522;28;20361;-67
2022/08/09 10:45:30;;;;;;;;;;;;;;;28.22;24.29;102249.06;5021425;28;19967;-67
2022/08/09 10:48:11;;;;;;;;;;;;;;;28.25;24.02;102242.16;5025192;28;19921;-69
2022/08/09 10:51:08;;;;;;;;;;;;;;;28.29;24.07;102236.94;5024144;28;20013;-68
2022/08/09 10:53:49;;;;;;;;;;;;;;;28.32;24.06;102242.13;5024604;28;19935;-68
2022/08/09 10:56:23;;;;;;;;;;;;;;;28.35;24.12;102242.56;5024713;28;20595;-68
2022/08/09 10:58:52;;;;;;;;;;;;;;;28.38;24.09;102229.97;5024085;28;20081;-68
2022/08/09 11:01:38;;;;;;;;;;;;;;;28.40;23.94;102234.31;5025358;28;19921;-68
2022/08/09 11:04:26;;;;;;;;;;;;;;;28.44;24.15;102235.59;5021192;28;19920;-68
2022/08/09 11:07:17;;;;;;;;;;;;;;;28.47;23.79;102239.94;5023567;28;19921;-68
2022/08/09 11:09:50;;;;;;;;;;;;;;;28.50;23.71;102225.41;5024083;28;19925;-68
2022/08/09 11:12:20;;;;;;;;;;;;;;;28.52;23.49;102240.16;5023201;28;19921;-68
2022/08/09 11:14:54;;;;;;;;;;;;;;;28.54;23.57;102227.56;5020817;28;20397;-68
2022/08/09 11:17:51;;;;;;;;;;;;;;;28.57;23.78;102234.72;5022928;28;20409;-68
2022/08/09 11:20:40;;;;;;;;;;;;;;;28.59;23.30;102227.78;5020076;28;19920;-68
2022/08/09 11:23:12;;;;;;;;;;;;;;;28.61;23.38;102235.97;5017893;28;20044;-68
2022/08/09 11:25:45;;;;;;;;;;;;;;;28.63;23.49;102219.72;5018888;28;19967;-68
2022/08/09 11:28:34;;;;;;;;;;;;;;;28.65;23.54;102219.50;5022349;28;19925;-68
2022/08/09 11:31:44;;;;;;;;;;;;;;;28.65;23.02;102223.19;5020523;28;20023;-68
2022/08/09 11:34:24;;;;;;;;;;;;;;;28.67;23.30;102218.22;5020948;28;19921;-68
2022/08/09 11:36:52;;;;;;;;;;;;;;;28.69;23.19;102212.34;5025012;28;19925;-68
2022/08/09 11:39:20;;;;;;;;;;;;;;;28.72;23.36;102209.94;5024247;28;19927;-68
2022/08/09 11:41:52;;;;;;;;;;;;;;;28.77;23.26;102220.59;5004959;28;19960;-66
2022/08/09 11:44:44;;;;;;;;;;;;;;;28.81;23.56;102214.28;5020060;28;19925;-68
2022/08/09 11:47:11;;;;;;;;;;;;;;;28.86;23.57;102200.38;5020827;28;20420;-65
2022/08/09 11:49:57;;;;;;;;;;;;;;;28.92;23.35;102204.28;5022923;28;19921;-69
2022/08/09 11:53:04;;;;;;;;;;;;;;;28.99;23.37;102199.47;5016627;28;20566;-69
2022/08/09 11:55:52;;;;;;;;;;;;;;;29.06;23.02;102207.88;5018902;28;20047;-70
2022/08/09 11:58:46;;;;;;;;;;;;;;;29.11;22.95;102206.09;5019068;28;19921;-70
2022/08/09 12:01:18;;;;;;;;;;;;;;;29.13;22.82;102198.28;5017221;28;20370;-69
2022/08/09 12:04:06;;;;;;;;;;;;;;;29.16;22.53;102194.16;5024097;28;20343;-69
2022/08/09 12:06:51;;;;;;;;;;;;;;;29.17;22.53;102196.75;5010009;28;19963;-70
2022/08/09 12:09:25;;;;;;;;;;;;;;;29.19;22.90;102188.91;5009751;28;20346;-70
2022/08/09 12:11:56;;;;;;;;;;;;;;;29.20;22.63;102192.59;5027513;28;19925;-70
2022/08/09 12:14:32;;;;;;;;;;;;;;;29.22;22.37;102201.69;5026439;28;19925;-70
2022/08/09 12:17:20;;;;;;;;;;;;;;;29.22;22.31;102194.09;5025360;28;20078;-70
2022/08/09 12:20:11;;;;;;;;;;;;;;;29.24;22.45;102186.31;5027748;28;20038;-69
2022/08/09 12:22:43;;;;;;;;;;;;;;;29.24;22.24;102183.50;5010263;28;19982;-69
2022/08/09 12:25:11;;;;;;;;;;;;;;;29.28;22.33;102178.25;5019494;28;19921;-69
2022/08/09 12:27:41;;;;;;;;;;;;;;;29.29;22.24;102191.28;5026180;28;19920;-69
2022/08/09 12:30:31;;;;;;;;;;;;;;;29.31;22.41;102187.13;5007808;28;19925;-70